Time;durP1;ratioP1;P1;durP2;ratioP2;P2;SDS_P1;SDS_P2;PMS_P1;PMS_P2;Temp;Humidity;BMP_temperature;BMP_pressure;BME280_temperature;BME280_humidity;BME280_pressure;Samples;Min_cycle;Max_cycle;Signal;HPM_P1;HPM_P2
2023/03/30 00:00:17;;;;;;;11.37;3.13;;;;;;;14.32;59.90;100073.34;5048004;28;20208;-69
2023/03/30 00:02:45;;;;;;;8.87;2.87;;;;;;;14.36;59.76;100063.13;5051205;28;20200;-69
2023/03/30 00:05:14;;;;;;;11.40;3.20;;;;;;;14.34;59.90;100059.81;5049867;28;20294;-66
2023/03/30 00:07:45;;;;;;;10.87;3.83;;;;;;;14.32;59.90;100054.66;5048264;28;20214;-68
2023/03/30 00:10:16;;;;;;;12.10;3.53;;;;;;;14.39;60.08;100060.97;5051298;28;20211;-68
2023/03/30 00:12:46;;;;;;;9.00;2.90;;;;;;;14.40;59.86;100053.78;5050078;28;20215;-67
2023/03/30 00:15:16;;;;;;;13.37;3.07;;;;;;;14.42;59.83;100049.09;5052760;28;20234;-69
2023/03/30 00:17:44;;;;;;;11.00;3.43;;;;;;;14.46;59.85;100050.38;5051004;28;20206;-67
2023/03/30 00:20:14;;;;;;;9.60;3.50;;;;;;;14.46;59.47;100045.88;5053920;28;20471;-67
2023/03/30 00:22:44;;;;;;;14.33;3.40;;;;;;;14.49;59.48;100042.84;5052972;28;20664;-65
2023/03/30 00:25:14;;;;;;;10.30;3.50;;;;;;;14.53;59.42;100044.13;5052926;28;20222;-67
2023/03/30 00:27:43;;;;;;;10.83;3.10;;;;;;;14.57;59.41;100042.75;5055691;28;20551;-65
2023/03/30 00:30:13;;;;;;;11.30;3.30;;;;;;;14.56;59.81;100041.09;5053897;28;20219;-67
2023/03/30 00:32:40;;;;;;;12.20;3.60;;;;;;;14.59;60.22;100047.91;5053146;28;20230;-67
2023/03/30 00:35:09;;;;;;;10.90;3.10;;;;;;;14.58;60.60;100049.75;5055138;28;20233;-66
2023/03/30 00:37:37;;;;;;;8.70;3.53;;;;;;;14.62;60.41;100043.00;5054541;28;20211;-67
2023/03/30 00:40:08;;;;;;;8.87;3.33;;;;;;;14.61;59.93;100036.03;5052384;28;20231;-67
2023/03/30 00:42:37;;;;;;;10.37;3.03;;;;;;;14.56;60.68;100043.75;5052521;28;20214;-68
2023/03/30 00:45:21;;;;;;;8.67;3.00;;;;;;;14.52;61.08;100036.28;5057050;28;20633;-67
2023/03/30 00:47:57;;;;;;;8.63;3.37;;;;;;;14.53;61.63;100033.44;5054139;28;20705;-66
2023/03/30 00:50:33;;;;;;;9.87;3.37;;;;;;;14.53;61.08;100036.13;5052075;28;21131;-67
2023/03/30 00:53:07;;;;;;;7.93;3.20;;;;;;;14.50;60.55;100017.00;5053681;28;20210;-66
2023/03/30 00:55:38;;;;;;;12.07;3.27;;;;;;;14.47;61.07;100023.53;5052737;28;20213;-68
2023/03/30 00:58:08;;;;;;;7.53;3.60;;;;;;;14.47;61.63;100025.34;5054110;28;20611;-67
2023/03/30 01:00:38;;;;;;;11.43;3.33;;;;;;;14.46;62.12;100048.53;5051682;28;20219;-68
2023/03/30 01:03:15;;;;;;;10.97;3.03;;;;;;;14.46;61.79;100043.19;5053874;28;20208;-67
2023/03/30 01:05:45;;;;;;;13.30;3.23;;;;;;;14.47;61.93;100036.03;5053033;28;22773;-67
2023/03/30 01:08:15;;;;;;;15.93;3.53;;;;;;;14.46;61.71;100029.88;5052951;28;20245;-68
2023/03/30 01:10:45;;;;;;;10.47;3.63;;;;;;;14.42;62.16;100017.91;5049329;28;20632;-68
2023/03/30 01:13:15;;;;;;;15.33;3.80;;;;;;;14.44;61.70;100023.88;5049724;28;20212;-67
2023/03/30 01:15:55;;;;;;;9.60;3.63;;;;;;;14.45;61.65;100043.38;5053453;28;20231;-67
2023/03/30 01:18:34;;;;;;;12.77;3.80;;;;;;;14.49;60.91;100042.00;5050646;28;20215;-68
2023/03/30 01:21:28;;;;;;;10.23;3.07;;;;;;;14.52;60.96;100041.63;5050004;28;20211;-67
2023/03/30 01:24:47;;;;;;;7.73;3.00;;;;;;;14.57;60.33;100040.09;5051296;28;20217;-68
2023/03/30 01:27:45;;;;;;;11.77;3.00;;;;;;;14.59;59.58;100032.72;5050682;28;20218;-68
2023/03/30 01:30:47;;;;;;;13.13;2.97;;;;;;;14.66;59.57;100044.31;5051376;28;20207;-67
2023/03/30 01:33:43;;;;;;;13.43;3.07;;;;;;;14.62;60.47;100035.00;5049061;28;20203;-68
2023/03/30 01:36:44;;;;;;;9.77;3.97;;;;;;;14.63;62.06;100041.19;5050613;28;20266;-68
2023/03/30 01:39:28;;;;;;;10.53;3.43;;;;;;;14.61;62.41;100036.03;5049471;28;20249;-67
2023/03/30 01:42:01;;;;;;;12.07;3.60;;;;;;;14.61;62.65;100019.19;5049195;28;20716;-68
2023/03/30 01:44:36;;;;;;;14.37;4.07;;;;;;;14.61;62.80;100014.66;5052431;28;20222;-68
2023/03/30 01:47:10;;;;;;;9.60;3.50;;;;;;;14.57;62.83;100021.41;5051330;28;20226;-67
2023/03/30 01:49:45;;;;;;;15.33;3.30;;;;;;;14.56;62.94;100024.25;5051039;28;20218;-67
2023/03/30 01:52:19;;;;;;;11.17;3.60;;;;;;;14.57;62.55;100028.59;5052237;28;20218;-67
2023/03/30 01:54:56;;;;;;;11.80;3.67;;;;;;;14.55;62.96;100036.75;5050464;28;20219;-66
2023/03/30 01:57:30;;;;;;;13.77;3.50;;;;;;;14.53;62.73;100044.13;5048895;28;20230;-65
2023/03/30 02:00:05;;;;;;;9.07;4.00;;;;;;;14.48;63.63;100056.38;5050016;28;20211;-66
2023/03/30 02:02:34;;;;;;;17.73;4.67;;;;;;;14.52;63.35;100053.13;5050986;28;20215;-67
2023/03/30 02:05:05;;;;;;;13.97;5.00;;;;;;;14.51;63.55;100056.81;5053981;28;20225;-67
2023/03/30 02:07:36;;;;;;;11.50;3.27;;;;;;;14.52;62.71;100047.78;5053382;28;20213;-66
2023/03/30 02:10:10;;;;;;;11.00;3.63;;;;;;;14.54;63.30;100047.63;5054122;28;20292;-66
2023/03/30 02:12:39;;;;;;;9.43;4.20;;;;;;;14.53;63.41;100043.28;5052317;28;20660;-67
2023/03/30 02:15:10;;;;;;;8.63;3.53;;;;;;;14.52;63.49;100037.13;5050776;28;20629;-68
2023/03/30 02:17:40;;;;;;;13.13;3.73;;;;;;;14.50;64.18;100017.81;5050819;28;20239;-68
2023/03/30 02:20:11;;;;;;;17.10;3.87;;;;;;;14.55;63.93;100014.59;5046870;28;20568;-67
2023/03/30 02:22:39;;;;;;;11.37;2.60;;;;;;;14.54;64.05;99991.59;5052296;28;20217;-68
2023/03/30 02:25:10;;;;;;;10.13;2.90;;;;;;;14.58;63.27;100008.91;5050652;28;20327;-68
2023/03/30 02:27:38;;;;;;;9.77;3.27;;;;;;;14.58;62.85;100016.91;5050988;28;20808;-68
2023/03/30 02:30:07;;;;;;;10.87;3.20;;;;;;;14.59;63.01;100022.06;5052290;28;20218;-67
2023/03/30 02:32:41;;;;;;;13.00;2.90;;;;;;;14.64;63.31;100032.16;5052023;28;20219;-68
2023/03/30 02:35:21;;;;;;;11.57;3.17;;;;;;;14.67;62.58;100016.63;5050765;28;20250;-68
2023/03/30 02:38:11;;;;;;;12.10;3.13;;;;;;;14.67;62.39;100019.28;5050111;28;20207;-66
2023/03/30 02:40:51;;;;;;;12.93;4.10;;;;;;;14.80;61.55;100023.94;5052818;28;20243;-67
2023/03/30 02:43:33;;;;;;;14.93;3.73;;;;;;;14.74;61.96;100045.22;5048955;28;20334;-67
2023/03/30 02:46:16;;;;;;;12.47;3.63;;;;;;;14.74;61.81;100034.56;5054546;28;20567;-68
2023/03/30 02:48:55;;;;;;;11.57;2.80;;;;;;;14.78;61.63;100020.63;5052018;28;20215;-66
2023/03/30 02:51:43;;;;;;;20.57;3.10;;;;;;;14.76;61.78;100027.19;5050352;28;20212;-68
2023/03/30 02:54:22;;;;;;;8.07;2.20;;;;;;;14.74;61.78;100021.22;5051677;28;20966;-67
2023/03/30 02:57:00;;;;;;;12.33;3.13;;;;;;;14.80;61.76;100025.78;5051172;28;20242;-68
2023/03/30 02:59:32;;;;;;;10.67;3.33;;;;;;;14.81;61.77;100056.81;5051711;28;20528;-67
2023/03/30 03:02:09;;;;;;;8.40;2.90;;;;;;;14.83;61.67;100065.47;5050306;28;20304;-68
2023/03/30 03:04:42;;;;;;;11.30;3.00;;;;;;;14.85;62.02;100066.94;5054524;28;20212;-66
2023/03/30 03:07:10;;;;;;;6.70;2.40;;;;;;;14.87;61.34;100056.06;5052343;28;20230;-67
2023/03/30 03:09:38;;;;;;;9.93;3.07;;;;;;;14.91;61.74;100052.84;5051459;28;20249;-67
2023/03/30 03:12:10;;;;;;;11.20;2.67;;;;;;;14.94;60.68;100040.97;5049567;28;20237;-68
2023/03/30 03:14:40;;;;;;;13.03;2.83;;;;;;;14.96;62.58;100028.25;5050056;28;20211;-68
2023/03/30 03:17:08;;;;;;;7.83;2.90;;;;;;;14.92;62.65;100032.31;5049825;28;20231;-68
2023/03/30 03:19:38;;;;;;;12.00;3.37;;;;;;;14.93;63.68;100050.00;5048812;28;20265;-67
2023/03/30 03:22:06;;;;;;;14.60;2.93;;;;;;;14.90;63.81;100045.03;5049330;28;20218;-68
2023/03/30 03:24:37;;;;;;;17.70;3.10;;;;;;;14.95;63.85;100037.31;5048815;28;20219;-67
2023/03/30 03:27:07;;;;;;;8.93;3.23;;;;;;;14.95;63.20;100023.94;5047928;28;20210;-66
2023/03/30 03:29:35;;;;;;;15.90;3.07;;;;;;;14.94;64.00;100027.63;5049639;28;20297;-67
2023/03/30 03:32:02;;;;;;;19.80;4.40;;;;;;;14.93;63.85;100024.13;5049767;28;20206;-66
2023/03/30 03:34:31;;;;;;;11.83;3.20;;;;;;;14.96;64.74;100006.88;5051790;28;20215;-66
2023/03/30 03:36:59;;;;;;;14.80;3.07;;;;;;;14.95;63.91;99991.91;5050940;28;20712;-68
2023/03/30 03:39:26;;;;;;;10.40;2.90;;;;;;;14.98;63.86;99975.50;5050963;28;20267;-67
2023/03/30 03:41:54;;;;;;;12.30;3.07;;;;;;;14.98;61.90;99968.31;5051893;28;21046;-67
2023/03/30 03:44:23;;;;;;;13.20;2.80;;;;;;;14.99;62.24;99959.31;5053504;28;20207;-66
2023/03/30 03:46:51;;;;;;;8.07;2.97;;;;;;;15.03;61.02;99957.09;5051682;28;20218;-68
2023/03/30 03:49:19;;;;;;;17.70;3.13;;;;;;;15.05;61.08;99947.03;5054898;28;20219;-69
2023/03/30 03:51:47;;;;;;;6.63;2.20;;;;;;;15.05;61.00;99933.66;5050535;28;20689;-68
2023/03/30 03:54:15;;;;;;;9.33;2.97;;;;;;;15.06;62.01;99938.81;5053883;28;20208;-66
2023/03/30 03:56:42;;;;;;;10.93;2.50;;;;;;;15.08;61.39;99946.66;5056726;28;20570;-69
2023/03/30 03:59:10;;;;;;;14.00;2.93;;;;;;;15.05;61.74;99942.50;5056040;28;20216;-68
2023/03/30 04:01:39;;;;;;;20.83;3.23;;;;;;;15.10;63.75;99930.44;5054394;28;20230;-68
2023/03/30 04:04:07;;;;;;;10.43;3.30;;;;;;;15.17;65.05;99917.97;5056454;28;20223;-67
2023/03/30 04:06:35;;;;;;;11.70;3.37;;;;;;;15.17;65.92;99913.47;5055843;28;20942;-68
2023/03/30 04:09:02;;;;;;;16.57;3.40;;;;;;;15.17;66.06;99905.47;5055264;28;20322;-67
2023/03/30 04:11:30;;;;;;;9.23;3.27;;;;;;;15.21;66.67;99898.72;5053932;28;20226;-68
2023/03/30 04:13:58;;;;;;;14.57;4.03;;;;;;;15.25;66.68;99894.63;5055413;28;20215;-68
2023/03/30 04:16:27;;;;;;;12.87;3.13;;;;;;;15.25;66.44;99891.16;5056176;28;20246;-68
2023/03/30 04:18:59;;;;;;;11.37;3.67;;;;;;;15.28;67.19;99891.59;5053905;28;20231;-67
2023/03/30 04:21:28;;;;;;;17.17;3.63;;;;;;;15.25;67.57;99886.63;5054856;28;20218;-69
2023/03/30 04:23:56;;;;;;;16.03;3.83;;;;;;;15.23;67.75;99891.31;5052820;28;20572;-69
2023/03/30 04:26:24;;;;;;;17.63;3.73;;;;;;;15.22;68.26;99889.66;5052651;28;20584;-69
2023/03/30 04:28:52;;;;;;;12.00;3.17;;;;;;;15.26;68.44;99890.13;5056207;28;20211;-67
2023/03/30 04:31:21;;;;;;;14.80;3.43;;;;;;;15.24;68.92;99895.66;5052131;28;21452;-68
2023/03/30 04:33:52;;;;;;;15.10;3.40;;;;;;;15.24;69.38;99906.34;5055524;28;20701;-68
2023/03/30 04:36:22;;;;;;;17.30;3.93;;;;;;;15.24;71.21;99906.34;5052863;28;20231;-66
2023/03/30 04:38:57;;;;;;;16.37;3.17;;;;;;;15.21;72.20;99920.09;5053619;28;20235;-67
2023/03/30 04:41:32;;;;;;;14.83;3.57;;;;;;;15.20;74.06;99921.09;5052250;28;20500;-69
2023/03/30 04:44:01;;;;;;;11.13;3.60;;;;;;;15.13;74.43;99922.06;5054687;28;20211;-66
2023/03/30 04:46:30;;;;;;;17.27;3.87;;;;;;;15.10;72.44;99925.09;5053571;28;20294;-68
2023/03/30 04:48:58;;;;;;;14.80;3.40;;;;;;;15.10;73.29;99944.63;5054334;28;20695;-66
2023/03/30 04:51:27;;;;;;;14.27;4.30;;;;;;;15.09;74.18;99947.47;5055991;28;20216;-67
2023/03/30 04:53:55;;;;;;;17.37;4.00;;;;;;;15.08;75.26;99952.00;5053350;28;20292;-67
2023/03/30 04:56:23;;;;;;;15.27;3.27;;;;;;;15.09;76.30;99953.66;5053964;28;20296;-68
2023/03/30 04:58:50;;;;;;;19.70;3.67;;;;;;;15.02;75.10;99958.94;5051194;28;21073;-67
2023/03/30 05:01:18;;;;;;;17.40;3.63;;;;;;;15.02;75.06;99956.25;5052799;28;20215;-67
2023/03/30 05:03:46;;;;;;;18.43;4.47;;;;;;;15.06;74.75;99964.69;5053250;28;20655;-67
2023/03/30 05:06:13;;;;;;;14.73;3.60;;;;;;;15.06;76.92;99962.03;5052338;28;20928;-68
2023/03/30 05:08:42;;;;;;;13.73;3.90;;;;;;;15.01;77.17;99956.44;5054485;28;20599;-69
2023/03/30 05:11:10;;;;;;;11.00;3.63;;;;;;;15.00;75.36;99954.78;5053401;28;20241;-69
2023/03/30 05:13:39;;;;;;;14.20;3.93;;;;;;;15.09;74.04;99952.81;5052437;28;20208;-70
2023/03/30 05:16:08;;;;;;;10.70;3.53;;;;;;;15.13;74.83;99949.56;5048902;28;20215;-66
2023/03/30 05:18:37;;;;;;;11.70;3.33;;;;;;;15.04;73.99;99961.38;5053177;28;20740;-68
2023/03/30 05:21:05;;;;;;;14.33;4.57;;;;;;;15.05;73.99;99969.22;5052014;28;20204;-67
2023/03/30 05:23:33;;;;;;;17.87;3.43;;;;;;;15.13;75.78;99976.28;5051923;28;20215;-69
2023/03/30 05:26:03;;;;;;;18.83;3.77;;;;;;;15.07;77.54;99979.72;5053593;28;20208;-67
2023/03/30 05:28:31;;;;;;;17.63;3.77;;;;;;;15.00;78.22;99992.16;5053061;28;20211;-68
2023/03/30 05:30:59;;;;;;;25.10;4.53;;;;;;;14.94;79.63;99999.09;5050967;28;20212;-66
2023/03/30 05:33:27;;;;;;;17.83;4.13;;;;;;;14.88;81.03;99993.66;5051233;28;20606;-68
2023/03/30 05:35:56;;;;;;;19.07;5.07;;;;;;;14.88;80.85;99996.31;5052114;28;20572;-67
2023/03/30 05:38:24;;;;;;;14.20;4.30;;;;;;;14.83;80.40;100007.56;5052689;28;20880;-68
2023/03/30 05:40:52;;;;;;;17.43;4.40;;;;;;;14.85;80.81;100020.75;5034070;28;20211;-68
2023/03/30 05:43:21;;;;;;;22.80;4.03;;;;;;;14.87;81.96;100037.38;5030653;28;20211;-69
2023/03/30 05:45:49;;;;;;;20.03;4.10;;;;;;;14.88;81.98;100044.38;5036660;28;20264;-68
2023/03/30 05:48:17;;;;;;;11.47;2.30;;;;;;;14.79;77.52;100032.97;5034233;28;20876;-68
2023/03/30 05:50:47;;;;;;;12.33;3.20;;;;;;;14.84;80.27;100059.13;5035237;28;20213;-67
2023/03/30 05:53:15;;;;;;;17.63;3.70;;;;;;;14.83;81.24;100060.13;5035314;28;21858;-67
2023/03/30 05:55:44;;;;;;;12.00;4.17;;;;;;;14.86;81.02;100076.63;5035042;28;20220;-67
2023/03/30 05:58:12;;;;;;;12.43;3.17;;;;;;;14.88;80.68;100071.06;5033552;28;20235;-68
2023/03/30 06:00:43;;;;;;;14.27;3.90;;;;;;;14.92;81.29;100067.03;5033607;28;20215;-62
2023/03/30 06:03:12;;;;;;;15.13;3.57;;;;;;;14.89;82.78;100065.56;5031552;28;20670;-62
2023/03/30 06:05:42;;;;;;;20.20;5.80;;;;;;;14.93;83.14;100060.69;5032681;28;20702;-63
2023/03/30 06:08:12;;;;;;;14.53;3.90;;;;;;;14.92;84.38;100054.50;5035761;28;20777;-64
2023/03/30 06:10:40;;;;;;;21.10;4.57;;;;;;;14.81;85.87;100051.47;5032714;28;20211;-64
2023/03/30 06:13:08;;;;;;;19.47;5.33;;;;;;;14.78;86.87;100044.66;5032606;28;20231;-60
2023/03/30 06:15:35;;;;;;;17.90;4.50;;;;;;;14.72;86.91;100052.59;5036050;28;20701;-64
2023/03/30 06:18:07;;;;;;;22.17;4.77;;;;;;;14.75;86.86;100057.56;5033731;28;21702;-60
2023/03/30 06:20:35;;;;;;;14.93;3.80;;;;;;;14.68;86.47;100063.66;5033012;28;20228;-64
2023/03/30 06:23:03;;;;;;;9.40;3.17;;;;;;;14.73;85.92;100064.91;5033751;28;20246;-65
2023/03/30 06:25:31;;;;;;;14.83;3.10;;;;;;;14.76;85.93;100067.22;5037196;28;20223;-65
2023/03/30 06:27:58;;;;;;;15.57;3.90;;;;;;;14.73;86.30;100056.91;5035582;28;20269;-65
2023/03/30 06:30:26;;;;;;;14.57;4.17;;;;;;;14.75;86.39;100039.72;5034461;28;20213;-65
2023/03/30 06:32:54;;;;;;;17.60;3.50;;;;;;;14.75;87.03;100047.72;5032699;28;20204;-65
2023/03/30 06:35:23;;;;;;;11.20;3.20;;;;;;;14.74;87.46;100039.88;5021512;28;20242;-63
2023/03/30 06:37:51;;;;;;;13.17;3.80;;;;;;;14.72;86.88;100031.22;5032063;28;20232;-62
2023/03/30 06:40:19;;;;;;;16.47;3.33;;;;;;;14.65;87.73;100034.66;5045459;28;20298;-63
2023/03/30 06:42:47;;;;;;;13.70;3.80;;;;;;;14.65;87.76;100021.31;5050039;28;20207;-63
2023/03/30 06:45:15;;;;;;;11.30;3.03;;;;;;;14.62;86.87;100020.84;5051314;28;20243;-64
2023/03/30 06:47:43;;;;;;;14.80;3.23;;;;;;;14.53;86.60;100033.44;5053131;28;21107;-64
2023/03/30 06:50:12;;;;;;;12.13;3.77;;;;;;;14.55;86.60;100031.44;5051625;28;20241;-64
2023/03/30 06:52:41;;;;;;;10.07;3.20;;;;;;;14.56;86.81;100030.41;5046559;28;20219;-63
2023/03/30 06:55:09;;;;;;;7.47;2.87;;;;;;;14.55;85.82;100025.25;5051815;28;20219;-64
2023/03/30 06:57:37;;;;;;;5.90;2.53;;;;;;;14.46;85.82;100013.03;5049847;28;20231;-62
2023/03/30 07:00:09;;;;;;;14.23;3.20;;;;;;;14.44;86.18;100020.38;5043109;28;20211;-63
2023/03/30 07:02:36;;;;;;;7.23;2.77;;;;;;;14.40;86.29;100032.44;5051786;28;20725;-63
2023/03/30 07:05:05;;;;;;;10.00;3.10;;;;;;;14.42;85.34;100030.44;5048427;28;20300;-61
2023/03/30 07:07:33;;;;;;;13.07;2.77;;;;;;;14.33;85.99;100032.31;5048056;28;20208;-63
2023/03/30 07:10:08;;;;;;;11.10;3.17;;;;;;;14.29;86.43;100025.69;5051834;28;20228;-62
2023/03/30 07:12:37;;;;;;;6.10;2.80;;;;;;;14.28;86.71;100029.34;5051641;28;20203;-64
2023/03/30 07:15:07;;;;;;;7.43;2.63;;;;;;;14.28;87.36;100035.53;5048311;28;20208;-63
2023/03/30 07:17:35;;;;;;;11.23;3.10;;;;;;;14.25;87.20;100029.72;5048015;28;20223;-63
2023/03/30 07:20:05;;;;;;;9.83;2.90;;;;;;;14.17;87.35;100021.81;5051870;28;20211;-63
2023/03/30 07:22:32;;;;;;;8.13;2.60;;;;;;;14.12;87.35;100013.53;5050691;28;20912;-62
2023/03/30 07:25:00;;;;;;;11.43;3.63;;;;;;;14.05;87.21;99997.44;5048013;28;20215;-63
2023/03/30 07:27:30;;;;;;;13.60;4.90;;;;;;;14.01;87.33;99961.47;5051562;28;20215;-62
2023/03/30 07:29:57;;;;;;;7.13;3.00;;;;;;;13.95;87.24;99948.88;5051631;28;20211;-62
2023/03/30 07:32:37;;;;;;;10.43;3.67;;;;;;;13.89;87.71;99960.28;5052474;28;20200;-63
2023/03/30 07:35:05;;;;;;;9.17;3.90;;;;;;;13.86;88.04;99965.97;5051314;28;20218;-62
2023/03/30 07:37:33;;;;;;;7.13;3.63;;;;;;;13.91;87.82;100001.72;5051738;28;20235;-63
2023/03/30 07:40:02;;;;;;;9.30;4.50;;;;;;;14.00;87.56;99990.97;5053189;28;20822;-63
2023/03/30 07:42:31;;;;;;;13.47;4.77;;;;;;;13.99;86.91;99970.66;5054171;28;20952;-63
2023/03/30 07:44:59;;;;;;;9.37;3.90;;;;;;;13.99;86.29;99971.50;5054464;28;20218;-63
2023/03/30 07:47:26;;;;;;;8.23;3.70;;;;;;;14.04;85.62;99992.28;5055821;28;20222;-64
2023/03/30 07:49:54;;;;;;;6.83;3.37;;;;;;;14.15;85.22;99987.34;5053162;28;20241;-62
2023/03/30 07:52:22;;;;;;;7.63;3.50;;;;;;;14.22;83.67;99995.44;5053991;28;20217;-63
2023/03/30 07:54:49;;;;;;;12.50;3.43;;;;;;;14.25;83.08;99992.38;5050975;28;20724;-63
2023/03/30 07:57:17;;;;;;;9.63;3.63;;;;;;;14.29;82.62;100004.34;5051662;28;20215;-64
2023/03/30 07:59:46;;;;;;;10.13;3.23;;;;;;;14.32;82.47;99998.66;5050681;28;20231;-63
2023/03/30 08:02:14;;;;;;;7.03;2.73;;;;;;;14.32;82.49;100009.34;5052187;28;20207;-63
2023/03/30 08:04:43;;;;;;;8.87;3.03;;;;;;;14.31;82.33;100002.34;5053255;28;20207;-63
2023/03/30 08:07:12;;;;;;;7.03;3.13;;;;;;;14.33;81.89;99992.31;5053766;28;20212;-63
2023/03/30 08:09:39;;;;;;;8.47;2.60;;;;;;;14.40;81.59;99998.59;5054166;28;20226;-64
2023/03/30 08:12:07;;;;;;;6.80;3.27;;;;;;;14.45;81.23;100012.19;5053213;28;20215;-63
2023/03/30 08:14:35;;;;;;;6.90;2.67;;;;;;;14.56;81.41;100002.91;5053955;28;20668;-64
2023/03/30 08:17:04;;;;;;;7.40;2.93;;;;;;;14.62;81.06;100016.34;5054877;28;20212;-63
2023/03/30 08:19:32;;;;;;;7.07;2.20;;;;;;;14.80;80.36;100010.59;5054574;28;20228;-63
2023/03/30 08:22:00;;;;;;;7.27;2.80;;;;;;;15.07;79.15;100025.09;5054148;28;20674;-64
2023/03/30 08:24:28;;;;;;;7.30;2.30;;;;;;;15.29;77.99;100021.47;5051306;28;20265;-63
2023/03/30 08:26:56;;;;;;;9.57;2.70;;;;;;;15.51;76.75;100016.94;5051757;28;20215;-65
2023/03/30 08:29:23;;;;;;;6.07;2.50;;;;;;;15.60;76.50;100026.53;5053889;28;20199;-64
2023/03/30 08:31:51;;;;;;;4.70;1.97;;;;;;;15.62;76.29;100021.81;5052238;28;20216;-63
2023/03/30 08:34:22;;;;;;;6.83;2.23;;;;;;;15.66;76.43;100024.91;5053150;28;20239;-64
2023/03/30 08:36:50;;;;;;;5.47;2.33;;;;;;;15.70;76.29;100031.53;5053616;28;20759;-64
2023/03/30 08:39:17;;;;;;;6.20;2.50;;;;;;;15.64;76.67;100019.78;5053110;28;20240;-64
2023/03/30 08:41:56;;;;;;;6.97;2.43;;;;;;;15.57;77.43;100042.13;5052269;28;20298;-64
2023/03/30 08:44:32;;;;;;;7.77;2.53;;;;;;;15.57;77.75;100040.25;5055684;28;20203;-63
2023/03/30 08:47:02;;;;;;;7.27;2.90;;;;;;;15.56;78.11;100048.50;5052509;28;20207;-62
2023/03/30 08:49:36;;;;;;;10.20;2.47;;;;;;;15.53;78.52;100052.31;5054818;28;20262;-64
2023/03/30 08:52:05;;;;;;;6.63;2.60;;;;;;;15.53;78.26;100046.97;5054272;28;20261;-64
2023/03/30 08:54:33;;;;;;;7.10;2.67;;;;;;;15.52;78.20;100023.94;5051777;28;20216;-64
2023/03/30 08:57:09;;;;;;;7.00;2.53;;;;;;;15.41;78.44;100016.44;5050633;28;20207;-64
2023/03/30 08:59:45;;;;;;;9.17;2.50;;;;;;;15.25;79.63;100054.06;5055320;28;20227;-63
2023/03/30 09:02:20;;;;;;;7.10;2.23;;;;;;;15.21;80.14;100061.66;5053259;28;20208;-63
2023/03/30 09:04:57;;;;;;;7.43;2.97;;;;;;;15.26;80.30;100051.22;5053281;28;20850;-63
2023/03/30 09:07:27;;;;;;;6.27;2.60;;;;;;;15.30;80.66;100055.16;5052852;28;20214;-63
2023/03/30 09:09:57;;;;;;;8.47;2.97;;;;;;;15.38;80.47;100039.03;5053252;28;20226;-63
2023/03/30 09:12:36;;;;;;;8.20;3.00;;;;;;;15.31;80.75;100021.25;5054079;28;20226;-64
2023/03/30 09:15:07;;;;;;;8.13;2.57;;;;;;;15.29;80.88;100009.94;5050846;28;20228;-64
2023/03/30 09:17:41;;;;;;;10.57;3.27;;;;;;;15.29;81.03;100056.19;5051460;28;20646;-64
2023/03/30 09:20:15;;;;;;;11.30;3.27;;;;;;;15.34;80.35;100069.78;5050729;28;20315;-62
2023/03/30 09:22:44;;;;;;;5.77;3.10;;;;;;;15.36;80.86;100066.94;5050639;28;20200;-63
2023/03/30 09:25:16;;;;;;;10.63;3.20;;;;;;;15.25;80.90;100054.91;5052789;28;20211;-63
2023/03/30 09:27:51;;;;;;;7.67;2.70;;;;;;;15.32;78.82;100077.16;5052574;28;20702;-64
2023/03/30 09:30:22;;;;;;;7.37;2.40;;;;;;;15.34;77.39;100079.66;5053923;28;20214;-63
2023/03/30 09:33:00;;;;;;;5.17;2.00;;;;;;;15.36;70.87;100051.75;5052383;28;20278;-62
2023/03/30 09:35:40;;;;;;;7.77;2.57;;;;;;;15.41;68.56;100062.69;5051855;28;20216;-63
2023/03/30 09:38:11;;;;;;;8.90;2.67;;;;;;;15.49;67.52;100074.25;5050460;28;20938;-63
2023/03/30 09:41:06;;;;;;;7.93;2.73;;;;;;;15.53;66.28;100089.75;5053067;28;20243;-63
2023/03/30 09:43:36;;;;;;;11.67;2.93;;;;;;;15.58;65.40;100075.81;5051709;28;20599;-63
2023/03/30 09:46:06;;;;;;;7.13;2.67;;;;;;;15.58;65.24;100065.13;5052591;28;20290;-63
2023/03/30 09:48:39;;;;;;;7.17;2.43;;;;;;;15.68;64.79;100058.47;5053557;28;20203;-63
2023/03/30 09:51:24;;;;;;;6.83;2.77;;;;;;;15.69;64.34;100065.47;5048142;28;20214;-63
2023/03/30 09:53:59;;;;;;;11.03;2.83;;;;;;;15.61;64.37;100088.81;5052152;28;20211;-63
2023/03/30 09:56:30;;;;;;;8.10;2.73;;;;;;;15.60;62.99;100089.84;5051208;28;20216;-63
2023/03/30 09:58:57;;;;;;;8.27;3.03;;;;;;;15.58;64.06;100091.84;5050328;28;20216;-64
2023/03/30 10:01:37;;;;;;;8.70;2.67;;;;;;;15.62;63.76;100087.81;5052513;28;20214;-62
2023/03/30 10:04:08;;;;;;;9.40;2.70;;;;;;;15.76;63.91;100094.94;5051195;28;20920;-63
2023/03/30 10:06:45;;;;;;;7.20;2.73;;;;;;;15.88;63.76;100082.72;5050415;28;20212;-63
2023/03/30 10:09:13;;;;;;;5.63;2.40;;;;;;;16.05;63.28;100077.94;5052372;28;20243;-63
2023/03/30 10:11:44;;;;;;;9.00;2.40;;;;;;;16.18;63.21;100078.84;5054373;28;20226;-62
2023/03/30 10:14:30;;;;;;;8.93;2.60;;;;;;;16.73;62.74;100084.41;5053485;28;20212;-64
2023/03/30 10:16:59;;;;;;;10.70;2.97;;;;;;;17.68;59.10;100089.75;5051947;28;20264;-62
2023/03/30 10:19:27;;;;;;;8.07;2.77;;;;;;;17.76;57.74;100088.75;5052267;28;20231;-63
2023/03/30 10:21:58;;;;;;;10.00;2.50;;;;;;;17.47;58.24;100090.72;5051347;28;20207;-63
2023/03/30 10:24:28;;;;;;;8.40;2.93;;;;;;;17.35;59.00;100089.63;5051534;28;20691;-62
2023/03/30 10:26:58;;;;;;;7.33;2.30;;;;;;;17.11;59.38;100093.69;5053679;28;20220;-63
2023/03/30 10:29:28;;;;;;;8.07;2.10;;;;;;;16.90;60.41;100089.25;5053024;28;20227;-63
2023/03/30 10:31:59;;;;;;;13.10;3.27;;;;;;;16.85;61.41;100097.06;5048797;28;20222;-64
2023/03/30 10:34:36;;;;;;;9.07;2.70;;;;;;;16.76;61.66;100074.13;5053820;28;20207;-63
2023/03/30 10:37:12;;;;;;;6.83;2.40;;;;;;;16.75;61.14;100075.16;5052121;28;20293;-63
2023/03/30 10:39:42;;;;;;;7.17;2.10;;;;;;;16.72;60.73;100088.09;5053538;28;20235;-64
2023/03/30 10:42:15;;;;;;;8.07;2.67;;;;;;;16.77;61.19;100083.84;5050079;28;20239;-65
2023/03/30 10:44:47;;;;;;;5.60;2.40;;;;;;;16.66;61.57;100089.72;5050083;28;20219;-64
2023/03/30 10:47:29;;;;;;;9.57;1.83;;;;;;;16.56;60.97;100097.25;5053247;28;20211;-63
2023/03/30 10:50:07;;;;;;;7.47;2.60;;;;;;;16.56;62.08;100086.53;5052934;28;20291;-63
2023/03/30 10:52:45;;;;;;;11.00;2.77;;;;;;;16.44;61.31;100090.78;5049735;28;20214;-63
2023/03/30 10:55:31;;;;;;;8.97;2.40;;;;;;;16.46;61.70;100094.09;5054285;28;20215;-63
2023/03/30 10:58:07;;;;;;;7.00;2.27;;;;;;;16.72;60.73;100088.09;5054194;28;20207;-66
2023/03/30 11:00:50;;;;;;;6.47;2.57;;;;;;;16.86;60.30;100088.00;5052864;28;20235;-64
2023/03/30 11:03:24;;;;;;;9.63;2.47;;;;;;;16.97;61.05;100089.28;5053809;28;20203;-62
2023/03/30 11:05:56;;;;;;;6.30;2.30;;;;;;;17.10;60.17;100088.50;5053482;28;20240;-63
2023/03/30 11:08:29;;;;;;;9.60;2.70;;;;;;;17.26;58.55;100091.66;5054584;28;20223;-63
2023/03/30 11:11:00;;;;;;;8.70;2.53;;;;;;;17.18;59.61;100107.09;5051402;28;20210;-63
2023/03/30 11:13:31;;;;;;;8.63;2.70;;;;;;;17.20;59.48;100089.81;5050387;28;20683;-63
2023/03/30 11:16:03;;;;;;;6.97;2.50;;;;;;;17.03;59.70;100099.22;5051930;28;20696;-63
2023/03/30 11:18:35;;;;;;;7.60;2.57;;;;;;;16.90;60.38;100091.91;5049566;28;20215;-63
2023/03/30 11:21:08;;;;;;;7.67;2.10;;;;;;;16.98;59.78;100103.50;5049285;28;20284;-64
2023/03/30 11:23:44;;;;;;;7.20;2.03;;;;;;;16.91;59.12;100098.09;5051571;28;20296;-64
2023/03/30 11:26:17;;;;;;;6.90;2.10;;;;;;;17.02;58.86;100096.72;5051741;28;22118;-64
2023/03/30 11:29:00;;;;;;;9.23;1.83;;;;;;;17.03;58.75;100093.84;5050471;28;20203;-63
2023/03/30 11:31:53;;;;;;;7.47;2.37;;;;;;;16.96;59.24;100113.59;5050793;28;20340;-63
2023/03/30 11:34:29;;;;;;;5.50;1.73;;;;;;;16.87;58.46;100084.31;5053288;28;20207;-63
2023/03/30 11:37:03;;;;;;;6.77;2.10;;;;;;;16.82;58.69;100080.53;5049583;28;20206;-63
2023/03/30 11:39:34;;;;;;;6.03;2.30;;;;;;;16.86;59.20;100088.00;5052446;28;20843;-63
2023/03/30 11:42:14;;;;;;;11.43;2.30;;;;;;;16.74;59.19;100100.28;5051322;28;20203;-63